sensor_id;sensor_type;location;lat;lon;timestamp;P1;durP1;ratioP1;P2;durP2;ratioP2
3849;SDS011;1940;51.052;13.678;2022-10-16T00:01:14;14.00;;;8.20;;
3849;SDS011;1940;51.052;13.678;2022-10-16T00:03:42;16.27;;;8.97;;
3849;SDS011;1940;51.052;13.678;2022-10-16T00:06:09;15.80;;;9.47;;
3849;SDS011;1940;51.052;13.678;2022-10-16T00:08:35;14.17;;;9.13;;
3849;SDS011;1940;51.052;13.678;2022-10-16T00:11:06;16.03;;;9.40;;
3849;SDS011;1940;51.052;13.678;2022-10-16T00:13:37;15.73;;;7.77;;
3849;SDS011;1940;51.052;13.678;2022-10-16T00:16:04;13.47;;;8.30;;
3849;SDS011;1940;51.052;13.678;2022-10-16T00:18:31;12.80;;;8.60;;
3849;SDS011;1940;51.052;13.678;2022-10-16T00:21:01;18.27;;;9.20;;
3849;SDS011;1940;51.052;13.678;2022-10-16T00:23:28;12.37;;;7.43;;
3849;SDS011;1940;51.052;13.678;2022-10-16T00:25:55;11.80;;;8.57;;
3849;SDS011;1940;51.052;13.678;2022-10-16T00:28:21;13.57;;;8.17;;
3849;SDS011;1940;51.052;13.678;2022-10-16T00:30:47;14.53;;;8.47;;
3849;SDS011;1940;51.052;13.678;2022-10-16T00:33:13;15.53;;;9.03;;
3849;SDS011;1940;51.052;13.678;2022-10-16T00:35:38;14.20;;;9.03;;
3849;SDS011;1940;51.052;13.678;2022-10-16T00:38:04;12.60;;;8.67;;
3849;SDS011;1940;51.052;13.678;2022-10-16T00:40:29;14.03;;;9.00;;
3849;SDS011;1940;51.052;13.678;2022-10-16T00:42:56;12.93;;;7.60;;
3849;SDS011;1940;51.052;13.678;2022-10-16T00:45:21;15.60;;;9.80;;
3849;SDS011;1940;51.052;13.678;2022-10-16T00:47:47;17.30;;;10.47;;
3849;SDS011;1940;51.052;13.678;2022-10-16T00:50:18;14.10;;;8.60;;
3849;SDS011;1940;51.052;13.678;2022-10-16T00:52:53;14.97;;;9.70;;
3849;SDS011;1940;51.052;13.678;2022-10-16T00:55:19;14.83;;;9.00;;
3849;SDS011;1940;51.052;13.678;2022-10-16T00:57:45;13.67;;;8.03;;
3849;SDS011;1940;51.052;13.678;2022-10-16T01:00:12;10.90;;;7.40;;
3849;SDS011;1940;51.052;13.678;2022-10-16T01:02:42;12.23;;;8.00;;
3849;SDS011;1940;51.052;13.678;2022-10-16T01:05:07;14.37;;;7.93;;
3849;SDS011;1940;51.052;13.678;2022-10-16T01:10:38;18.17;;;8.83;;
3849;SDS011;1940;51.052;13.678;2022-10-16T01:13:11;13.57;;;8.00;;
3849;SDS011;1940;51.052;13.678;2022-10-16T01:16:04;13.90;;;8.40;;
3849;SDS011;1940;51.052;13.678;2022-10-16T01:18:35;12.90;;;7.60;;
3849;SDS011;1940;51.052;13.678;2022-10-16T01:21:10;16.33;;;8.23;;
3849;SDS011;1940;51.052;13.678;2022-10-16T01:23:47;12.00;;;7.27;;
3849;SDS011;1940;51.052;13.678;2022-10-16T01:29:11;10.57;;;6.40;;
3849;SDS011;1940;51.052;13.678;2022-10-16T01:31:44;10.93;;;6.83;;
3849;SDS011;1940;51.052;13.678;2022-10-16T01:34:16;12.30;;;7.20;;
3849;SDS011;1940;51.052;13.678;2022-10-16T01:36:54;9.93;;;6.33;;
3849;SDS011;1940;51.052;13.678;2022-10-16T01:39:28;10.67;;;6.57;;
3849;SDS011;1940;51.052;13.678;2022-10-16T01:42:01;8.60;;;6.00;;
3849;SDS011;1940;51.052;13.678;2022-10-16T01:44:33;10.97;;;5.40;;
3849;SDS011;1940;51.052;13.678;2022-10-16T01:47:01;14.23;;;6.00;;
3849;SDS011;1940;51.052;13.678;2022-10-16T01:49:31;9.70;;;6.13;;
3849;SDS011;1940;51.052;13.678;2022-10-16T01:52:00;8.80;;;5.80;;
3849;SDS011;1940;51.052;13.678;2022-10-16T01:54:30;9.57;;;5.17;;
3849;SDS011;1940;51.052;13.678;2022-10-16T01:56:57;9.10;;;5.97;;
3849;SDS011;1940;51.052;13.678;2022-10-16T01:59:25;11.40;;;5.43;;
3849;SDS011;1940;51.052;13.678;2022-10-16T02:01:54;8.83;;;5.13;;
3849;SDS011;1940;51.052;13.678;2022-10-16T02:04:24;9.70;;;5.40;;
3849;SDS011;1940;51.052;13.678;2022-10-16T02:07:01;6.93;;;5.20;;
3849;SDS011;1940;51.052;13.678;2022-10-16T02:09:27;7.97;;;5.50;;
3849;SDS011;1940;51.052;13.678;2022-10-16T02:11:53;7.73;;;5.03;;
3849;SDS011;1940;51.052;13.678;2022-10-16T02:14:21;8.37;;;5.60;;
3849;SDS011;1940;51.052;13.678;2022-10-16T02:16:49;8.97;;;5.20;;
3849;SDS011;1940;51.052;13.678;2022-10-16T02:19:15;10.40;;;5.30;;
3849;SDS011;1940;51.052;13.678;2022-10-16T02:26:52;7.77;;;5.37;;
3849;SDS011;1940;51.052;13.678;2022-10-16T02:29:27;7.17;;;5.47;;
3849;SDS011;1940;51.052;13.678;2022-10-16T02:31:55;9.20;;;5.07;;
3849;SDS011;1940;51.052;13.678;2022-10-16T02:34:23;8.20;;;5.30;;
3849;SDS011;1940;51.052;13.678;2022-10-16T02:36:50;7.73;;;5.23;;
3849;SDS011;1940;51.052;13.678;2022-10-16T02:39:17;8.03;;;5.73;;
3849;SDS011;1940;51.052;13.678;2022-10-16T02:41:44;6.73;;;5.00;;
3849;SDS011;1940;51.052;13.678;2022-10-16T02:44:10;9.57;;;5.70;;
3849;SDS011;1940;51.052;13.678;2022-10-16T02:46:35;6.57;;;4.53;;
3849;SDS011;1940;51.052;13.678;2022-10-16T02:49:01;6.20;;;4.47;;
3849;SDS011;1940;51.052;13.678;2022-10-16T02:51:26;7.23;;;5.23;;
3849;SDS011;1940;51.052;13.678;2022-10-16T02:53:52;8.33;;;5.13;;
3849;SDS011;1940;51.052;13.678;2022-10-16T02:56:17;12.43;;;4.97;;
3849;SDS011;1940;51.052;13.678;2022-10-16T02:58:43;6.23;;;4.67;;
3849;SDS011;1940;51.052;13.678;2022-10-16T03:01:09;7.23;;;4.70;;
3849;SDS011;1940;51.052;13.678;2022-10-16T03:03:35;7.97;;;5.20;;
3849;SDS011;1940;51.052;13.678;2022-10-16T03:06:01;7.00;;;5.10;;
3849;SDS011;1940;51.052;13.678;2022-10-16T03:08:27;7.67;;;4.97;;
3849;SDS011;1940;51.052;13.678;2022-10-16T03:10:53;9.47;;;5.20;;
3849;SDS011;1940;51.052;13.678;2022-10-16T03:13:19;9.03;;;5.10;;
3849;SDS011;1940;51.052;13.678;2022-10-16T03:15:45;7.30;;;4.73;;
3849;SDS011;1940;51.052;13.678;2022-10-16T03:18:10;10.50;;;5.70;;
3849;SDS011;1940;51.052;13.678;2022-10-16T03:20:36;7.30;;;5.07;;
3849;SDS011;1940;51.052;13.678;2022-10-16T03:23:02;9.57;;;6.50;;
3849;SDS011;1940;51.052;13.678;2022-10-16T03:25:28;9.17;;;5.63;;
3849;SDS011;1940;51.052;13.678;2022-10-16T03:27:53;8.97;;;6.00;;
3849;SDS011;1940;51.052;13.678;2022-10-16T03:30:19;9.27;;;5.90;;
3849;SDS011;1940;51.052;13.678;2022-10-16T03:32:44;7.80;;;5.50;;
3849;SDS011;1940;51.052;13.678;2022-10-16T03:35:10;7.17;;;5.27;;
3849;SDS011;1940;51.052;13.678;2022-10-16T03:37:35;11.50;;;4.80;;
3849;SDS011;1940;51.052;13.678;2022-10-16T03:40:02;6.63;;;5.00;;
3849;SDS011;1940;51.052;13.678;2022-10-16T03:42:28;7.67;;;5.60;;
3849;SDS011;1940;51.052;13.678;2022-10-16T03:44:53;5.67;;;4.43;;
3849;SDS011;1940;51.052;13.678;2022-10-16T03:47:19;8.00;;;5.23;;
3849;SDS011;1940;51.052;13.678;2022-10-16T03:49:47;6.70;;;4.90;;
3849;SDS011;1940;51.052;13.678;2022-10-16T03:52:13;6.63;;;4.63;;
3849;SDS011;1940;51.052;13.678;2022-10-16T03:54:38;7.80;;;4.93;;
3849;SDS011;1940;51.052;13.678;2022-10-16T03:57:04;7.03;;;5.17;;
3849;SDS011;1940;51.052;13.678;2022-10-16T03:59:29;6.67;;;5.37;;
3849;SDS011;1940;51.052;13.678;2022-10-16T04:01:55;8.60;;;5.53;;
3849;SDS011;1940;51.052;13.678;2022-10-16T04:04:20;8.10;;;5.30;;
3849;SDS011;1940;51.052;13.678;2022-10-16T04:06:46;7.77;;;5.40;;
3849;SDS011;1940;51.052;13.678;2022-10-16T04:09:11;10.20;;;4.77;;
3849;SDS011;1940;51.052;13.678;2022-10-16T04:11:37;6.90;;;4.53;;
3849;SDS011;1940;51.052;13.678;2022-10-16T04:14:03;7.80;;;4.60;;
3849;SDS011;1940;51.052;13.678;2022-10-16T04:16:29;5.43;;;4.20;;
3849;SDS011;1940;51.052;13.678;2022-10-16T04:18:54;7.27;;;5.00;;
3849;SDS011;1940;51.052;13.678;2022-10-16T04:21:20;6.43;;;4.87;;
3849;SDS011;1940;51.052;13.678;2022-10-16T04:23:46;7.90;;;4.70;;
3849;SDS011;1940;51.052;13.678;2022-10-16T04:26:11;5.53;;;3.50;;
3849;SDS011;1940;51.052;13.678;2022-10-16T04:28:37;6.00;;;3.87;;
3849;SDS011;1940;51.052;13.678;2022-10-16T04:31:06;5.10;;;3.60;;
3849;SDS011;1940;51.052;13.678;2022-10-16T04:33:32;6.70;;;3.97;;
3849;SDS011;1940;51.052;13.678;2022-10-16T04:36:01;6.43;;;4.03;;
3849;SDS011;1940;51.052;13.678;2022-10-16T04:38:28;5.77;;;4.13;;
3849;SDS011;1940;51.052;13.678;2022-10-16T04:40:54;6.17;;;4.03;;
3849;SDS011;1940;51.052;13.678;2022-10-16T04:43:20;7.20;;;4.20;;
3849;SDS011;1940;51.052;13.678;2022-10-16T04:45:46;5.87;;;3.80;;
3849;SDS011;1940;51.052;13.678;2022-10-16T04:48:12;8.50;;;4.10;;
3849;SDS011;1940;51.052;13.678;2022-10-16T04:50:38;8.70;;;3.50;;
3849;SDS011;1940;51.052;13.678;2022-10-16T04:53:03;4.73;;;3.53;;
3849;SDS011;1940;51.052;13.678;2022-10-16T04:55:29;5.67;;;4.20;;
3849;SDS011;1940;51.052;13.678;2022-10-16T04:57:55;6.80;;;3.60;;
3849;SDS011;1940;51.052;13.678;2022-10-16T05:00:20;7.03;;;3.97;;
3849;SDS011;1940;51.052;13.678;2022-10-16T05:02:47;5.87;;;4.20;;
3849;SDS011;1940;51.052;13.678;2022-10-16T05:05:14;6.53;;;4.20;;
3849;SDS011;1940;51.052;13.678;2022-10-16T05:07:40;6.50;;;4.20;;
3849;SDS011;1940;51.052;13.678;2022-10-16T05:10:05;7.50;;;4.90;;
3849;SDS011;1940;51.052;13.678;2022-10-16T05:12:31;7.30;;;5.17;;
3849;SDS011;1940;51.052;13.678;2022-10-16T05:14:57;7.40;;;4.83;;
3849;SDS011;1940;51.052;13.678;2022-10-16T05:17:24;6.90;;;5.00;;
3849;SDS011;1940;51.052;13.678;2022-10-16T05:19:50;8.37;;;5.77;;
3849;SDS011;1940;51.052;13.678;2022-10-16T05:22:15;7.63;;;4.67;;
3849;SDS011;1940;51.052;13.678;2022-10-16T05:24:41;7.37;;;4.60;;
3849;SDS011;1940;51.052;13.678;2022-10-16T05:27:07;8.97;;;4.47;;
3849;SDS011;1940;51.052;13.678;2022-10-16T05:29:32;6.77;;;4.30;;
3849;SDS011;1940;51.052;13.678;2022-10-16T05:31:58;5.67;;;4.00;;
3849;SDS011;1940;51.052;13.678;2022-10-16T05:34:23;5.30;;;3.80;;
3849;SDS011;1940;51.052;13.678;2022-10-16T05:36:49;5.97;;;3.53;;
3849;SDS011;1940;51.052;13.678;2022-10-16T05:39:15;5.90;;;3.43;;
3849;SDS011;1940;51.052;13.678;2022-10-16T05:41:42;5.40;;;3.50;;
3849;SDS011;1940;51.052;13.678;2022-10-16T05:44:08;5.63;;;3.70;;
3849;SDS011;1940;51.052;13.678;2022-10-16T05:46:34;6.57;;;4.03;;
3849;SDS011;1940;51.052;13.678;2022-10-16T05:48:59;4.57;;;3.70;;
3849;SDS011;1940;51.052;13.678;2022-10-16T05:51:25;7.13;;;3.33;;
3849;SDS011;1940;51.052;13.678;2022-10-16T05:53:51;8.60;;;3.67;;
3849;SDS011;1940;51.052;13.678;2022-10-16T05:56:17;5.27;;;3.90;;
3849;SDS011;1940;51.052;13.678;2022-10-16T05:58:43;10.63;;;3.70;;
3849;SDS011;1940;51.052;13.678;2022-10-16T06:01:12;5.60;;;3.90;;
3849;SDS011;1940;51.052;13.678;2022-10-16T06:03:42;5.47;;;3.80;;
3849;SDS011;1940;51.052;13.678;2022-10-16T06:06:12;6.60;;;3.70;;
3849;SDS011;1940;51.052;13.678;2022-10-16T06:08:39;7.10;;;4.40;;
3849;SDS011;1940;51.052;13.678;2022-10-16T06:11:10;7.97;;;4.03;;
3849;SDS011;1940;51.052;13.678;2022-10-16T06:13:37;6.77;;;3.70;;
3849;SDS011;1940;51.052;13.678;2022-10-16T06:16:08;6.57;;;4.13;;
3849;SDS011;1940;51.052;13.678;2022-10-16T06:18:35;7.03;;;3.80;;
3849;SDS011;1940;51.052;13.678;2022-10-16T06:21:06;5.90;;;3.60;;
3849;SDS011;1940;51.052;13.678;2022-10-16T06:23:33;5.47;;;3.77;;
3849;SDS011;1940;51.052;13.678;2022-10-16T06:28:53;5.40;;;4.07;;
3849;SDS011;1940;51.052;13.678;2022-10-16T06:31:20;5.80;;;4.40;;
3849;SDS011;1940;51.052;13.678;2022-10-16T06:33:49;6.87;;;4.60;;
3849;SDS011;1940;51.052;13.678;2022-10-16T06:36:16;8.00;;;4.33;;
3849;SDS011;1940;51.052;13.678;2022-10-16T06:38:42;6.07;;;4.47;;
3849;SDS011;1940;51.052;13.678;2022-10-16T06:41:12;15.23;;;6.53;;
3849;SDS011;1940;51.052;13.678;2022-10-16T06:43:40;19.07;;;9.20;;
3849;SDS011;1940;51.052;13.678;2022-10-16T06:46:06;13.03;;;7.30;;
3849;SDS011;1940;51.052;13.678;2022-10-16T06:48:34;9.77;;;5.60;;
3849;SDS011;1940;51.052;13.678;2022-10-16T06:53:28;12.03;;;6.03;;
3849;SDS011;1940;51.052;13.678;2022-10-16T06:55:55;10.43;;;6.03;;
3849;SDS011;1940;51.052;13.678;2022-10-16T06:58:21;9.00;;;5.33;;
3849;SDS011;1940;51.052;13.678;2022-10-16T07:00:47;8.83;;;5.33;;
3849;SDS011;1940;51.052;13.678;2022-10-16T07:03:13;7.60;;;4.87;;
3849;SDS011;1940;51.052;13.678;2022-10-16T07:05:40;6.40;;;4.67;;
3849;SDS011;1940;51.052;13.678;2022-10-16T07:08:06;7.97;;;5.20;;
3849;SDS011;1940;51.052;13.678;2022-10-16T07:10:32;7.93;;;5.53;;
3849;SDS011;1940;51.052;13.678;2022-10-16T07:12:58;8.00;;;5.17;;
3849;SDS011;1940;51.052;13.678;2022-10-16T07:15:24;7.60;;;5.70;;
3849;SDS011;1940;51.052;13.678;2022-10-16T07:17:50;7.20;;;5.50;;
3849;SDS011;1940;51.052;13.678;2022-10-16T07:20:16;6.83;;;5.03;;
3849;SDS011;1940;51.052;13.678;2022-10-16T07:22:42;10.17;;;6.23;;
3849;SDS011;1940;51.052;13.678;2022-10-16T07:25:07;7.40;;;5.50;;
3849;SDS011;1940;51.052;13.678;2022-10-16T07:27:33;9.77;;;5.87;;
3849;SDS011;1940;51.052;13.678;2022-10-16T07:29:59;8.20;;;5.70;;
3849;SDS011;1940;51.052;13.678;2022-10-16T07:32:24;9.03;;;6.03;;
3849;SDS011;1940;51.052;13.678;2022-10-16T07:34:50;11.17;;;7.13;;
3849;SDS011;1940;51.052;13.678;2022-10-16T07:37:16;9.37;;;6.37;;
3849;SDS011;1940;51.052;13.678;2022-10-16T07:39:42;7.60;;;5.60;;
3849;SDS011;1940;51.052;13.678;2022-10-16T07:42:07;9.93;;;6.27;;
3849;SDS011;1940;51.052;13.678;2022-10-16T07:44:33;10.23;;;6.63;;
3849;SDS011;1940;51.052;13.678;2022-10-16T07:46:58;10.23;;;6.97;;
3849;SDS011;1940;51.052;13.678;2022-10-16T07:49:24;11.40;;;7.03;;
3849;SDS011;1940;51.052;13.678;2022-10-16T07:51:49;10.50;;;7.37;;
3849;SDS011;1940;51.052;13.678;2022-10-16T07:54:15;9.00;;;6.87;;
3849;SDS011;1940;51.052;13.678;2022-10-16T07:56:41;10.77;;;7.30;;
3849;SDS011;1940;51.052;13.678;2022-10-16T07:59:06;11.17;;;7.47;;
3849;SDS011;1940;51.052;13.678;2022-10-16T08:01:32;12.47;;;7.00;;
3849;SDS011;1940;51.052;13.678;2022-10-16T08:03:57;10.23;;;6.63;;
3849;SDS011;1940;51.052;13.678;2022-10-16T08:06:23;9.80;;;6.37;;
3849;SDS011;1940;51.052;13.678;2022-10-16T08:08:49;12.13;;;6.37;;
3849;SDS011;1940;51.052;13.678;2022-10-16T08:11:14;8.23;;;5.70;;
3849;SDS011;1940;51.052;13.678;2022-10-16T08:13:40;7.90;;;5.57;;
3849;SDS011;1940;51.052;13.678;2022-10-16T08:16:06;9.87;;;6.60;;
3849;SDS011;1940;51.052;13.678;2022-10-16T08:18:37;12.50;;;6.00;;
3849;SDS011;1940;51.052;13.678;2022-10-16T08:21:04;8.90;;;5.63;;
3849;SDS011;1940;51.052;13.678;2022-10-16T08:23:30;7.40;;;5.17;;
3849;SDS011;1940;51.052;13.678;2022-10-16T08:26:01;7.47;;;5.00;;
3849;SDS011;1940;51.052;13.678;2022-10-16T08:28:29;9.53;;;6.00;;
3849;SDS011;1940;51.052;13.678;2022-10-16T08:30:54;7.43;;;5.57;;
3849;SDS011;1940;51.052;13.678;2022-10-16T08:33:21;8.13;;;6.03;;
3849;SDS011;1940;51.052;13.678;2022-10-16T08:35:50;8.57;;;6.17;;
3849;SDS011;1940;51.052;13.678;2022-10-16T08:38:18;10.23;;;6.87;;
3849;SDS011;1940;51.052;13.678;2022-10-16T08:40:44;11.03;;;6.37;;
3849;SDS011;1940;51.052;13.678;2022-10-16T08:48:57;14.30;;;7.10;;
3849;SDS011;1940;51.052;13.678;2022-10-16T08:51:28;8.37;;;6.10;;
3849;SDS011;1940;51.052;13.678;2022-10-16T08:53:57;8.20;;;5.67;;
3849;SDS011;1940;51.052;13.678;2022-10-16T08:56:26;7.23;;;5.53;;
3849;SDS011;1940;51.052;13.678;2022-10-16T08:58:52;8.03;;;6.00;;
3849;SDS011;1940;51.052;13.678;2022-10-16T09:01:20;6.80;;;4.60;;
3849;SDS011;1940;51.052;13.678;2022-10-16T09:15:01;5.10;;;3.70;;
3849;SDS011;1940;51.052;13.678;2022-10-16T09:17:43;4.30;;;3.10;;
3849;SDS011;1940;51.052;13.678;2022-10-16T09:20:14;3.30;;;3.00;;
3849;SDS011;1940;51.052;13.678;2022-10-16T09:22:45;3.60;;;3.30;;
3849;SDS011;1940;51.052;13.678;2022-10-16T09:25:15;2.77;;;2.57;;
3849;SDS011;1940;51.052;13.678;2022-10-16T09:27:44;4.13;;;2.63;;
3849;SDS011;1940;51.052;13.678;2022-10-16T09:30:14;2.43;;;2.33;;
3849;SDS011;1940;51.052;13.678;2022-10-16T09:32:43;8.13;;;1.17;;
3849;SDS011;1940;51.052;13.678;2022-10-16T09:35:16;1.20;;;1.10;;
3849;SDS011;1940;51.052;13.678;2022-10-16T09:37:45;0.90;;;0.90;;
3849;SDS011;1940;51.052;13.678;2022-10-16T09:40:28;2.20;;;1.00;;
3849;SDS011;1940;51.052;13.678;2022-10-16T09:43:10;1.00;;;0.90;;
3849;SDS011;1940;51.052;13.678;2022-10-16T09:45:42;4.10;;;1.10;;
3849;SDS011;1940;51.052;13.678;2022-10-16T09:48:17;1.40;;;1.00;;
3849;SDS011;1940;51.052;13.678;2022-10-16T09:50:54;1.50;;;1.23;;
3849;SDS011;1940;51.052;13.678;2022-10-16T09:53:20;2.80;;;1.00;;
3849;SDS011;1940;51.052;13.678;2022-10-16T09:55:51;1.30;;;1.10;;
3849;SDS011;1940;51.052;13.678;2022-10-16T09:58:20;1.20;;;1.07;;
3849;SDS011;1940;51.052;13.678;2022-10-16T10:00:53;1.10;;;1.00;;
3849;SDS011;1940;51.052;13.678;2022-10-16T10:03:30;0.90;;;0.90;;
3849;SDS011;1940;51.052;13.678;2022-10-16T10:06:06;1.10;;;1.00;;
3849;SDS011;1940;51.052;13.678;2022-10-16T10:08:41;1.33;;;1.00;;
3849;SDS011;1940;51.052;13.678;2022-10-16T10:11:17;3.17;;;1.03;;
3849;SDS011;1940;51.052;13.678;2022-10-16T10:13:42;1.40;;;0.97;;
3849;SDS011;1940;51.052;13.678;2022-10-16T10:16:08;0.90;;;0.80;;
3849;SDS011;1940;51.052;13.678;2022-10-16T10:18:34;1.10;;;1.00;;
3849;SDS011;1940;51.052;13.678;2022-10-16T10:21:00;1.00;;;0.90;;
3849;SDS011;1940;51.052;13.678;2022-10-16T10:23:28;1.97;;;0.90;;
3849;SDS011;1940;51.052;13.678;2022-10-16T10:26:11;1.00;;;0.90;;
3849;SDS011;1940;51.052;13.678;2022-10-16T10:28:47;1.10;;;1.00;;
3849;SDS011;1940;51.052;13.678;2022-10-16T10:31:39;3.07;;;1.10;;
3849;SDS011;1940;51.052;13.678;2022-10-16T10:42:51;1.07;;;0.97;;
3849;SDS011;1940;51.052;13.678;2022-10-16T10:45:43;1.07;;;0.90;;
3849;SDS011;1940;51.052;13.678;2022-10-16T10:50:58;0.90;;;0.90;;
3849;SDS011;1940;51.052;13.678;2022-10-16T10:54:02;0.80;;;0.73;;
3849;SDS011;1940;51.052;13.678;2022-10-16T10:56:42;0.80;;;0.70;;
3849;SDS011;1940;51.052;13.678;2022-10-16T10:59:19;0.90;;;0.70;;
3849;SDS011;1940;51.052;13.678;2022-10-16T11:07:21;0.73;;;0.73;;
3849;SDS011;1940;51.052;13.678;2022-10-16T11:09:57;0.80;;;0.73;;
3849;SDS011;1940;51.052;13.678;2022-10-16T11:12:34;1.00;;;0.90;;
3849;SDS011;1940;51.052;13.678;2022-10-16T11:15:14;1.00;;;0.80;;
3849;SDS011;1940;51.052;13.678;2022-10-16T11:21:06;0.77;;;0.73;;
3849;SDS011;1940;51.052;13.678;2022-10-16T11:26:15;2.80;;;0.93;;
3849;SDS011;1940;51.052;13.678;2022-10-16T11:28:48;3.33;;;0.93;;
3849;SDS011;1940;51.052;13.678;2022-10-16T11:31:17;0.90;;;0.80;;
3849;SDS011;1940;51.052;13.678;2022-10-16T11:33:55;2.30;;;0.90;;
3849;SDS011;1940;51.052;13.678;2022-10-16T11:36:27;2.30;;;1.10;;
3849;SDS011;1940;51.052;13.678;2022-10-16T11:39:07;1.20;;;0.90;;
3849;SDS011;1940;51.052;13.678;2022-10-16T11:41:45;2.70;;;1.10;;
3849;SDS011;1940;51.052;13.678;2022-10-16T11:44:27;1.00;;;0.80;;
3849;SDS011;1940;51.052;13.678;2022-10-16T11:55:41;1.40;;;1.30;;
3849;SDS011;1940;51.052;13.678;2022-10-16T11:58:16;1.00;;;0.90;;
3849;SDS011;1940;51.052;13.678;2022-10-16T12:06:40;8.67;;;1.00;;
3849;SDS011;1940;51.052;13.678;2022-10-16T12:09:24;1.23;;;0.90;;
3849;SDS011;1940;51.052;13.678;2022-10-16T12:11:52;1.50;;;0.90;;
3849;SDS011;1940;51.052;13.678;2022-10-16T12:14:20;1.13;;;0.80;;
3849;SDS011;1940;51.052;13.678;2022-10-16T12:16:59;1.37;;;1.07;;
3849;SDS011;1940;51.052;13.678;2022-10-16T12:19:57;4.47;;;1.20;;
3849;SDS011;1940;51.052;13.678;2022-10-16T12:25:36;1.00;;;0.90;;
3849;SDS011;1940;51.052;13.678;2022-10-16T12:30:40;1.30;;;1.10;;
3849;SDS011;1940;51.052;13.678;2022-10-16T12:33:15;1.33;;;1.23;;
3849;SDS011;1940;51.052;13.678;2022-10-16T12:35:50;2.80;;;0.90;;
3849;SDS011;1940;51.052;13.678;2022-10-16T12:38:18;1.23;;;1.13;;
3849;SDS011;1940;51.052;13.678;2022-10-16T12:40:46;0.97;;;0.87;;
3849;SDS011;1940;51.052;13.678;2022-10-16T12:43:34;3.60;;;1.13;;
3849;SDS011;1940;51.052;13.678;2022-10-16T12:46:18;1.13;;;0.97;;
3849;SDS011;1940;51.052;13.678;2022-10-16T12:48:49;2.30;;;0.90;;
3849;SDS011;1940;51.052;13.678;2022-10-16T12:54:12;1.20;;;1.07;;
3849;SDS011;1940;51.052;13.678;2022-10-16T13:11:03;0.93;;;0.87;;
3849;SDS011;1940;51.052;13.678;2022-10-16T13:13:49;1.70;;;1.10;;
3849;SDS011;1940;51.052;13.678;2022-10-16T13:22:01;1.00;;;0.90;;
3849;SDS011;1940;51.052;13.678;2022-10-16T13:29:42;1.00;;;0.90;;
3849;SDS011;1940;51.052;13.678;2022-10-16T13:32:09;1.20;;;1.10;;
3849;SDS011;1940;51.052;13.678;2022-10-16T13:34:46;1.00;;;0.90;;
3849;SDS011;1940;51.052;13.678;2022-10-16T13:37:21;6.73;;;1.40;;
3849;SDS011;1940;51.052;13.678;2022-10-16T13:39:48;2.20;;;1.40;;
3849;SDS011;1940;51.052;13.678;2022-10-16T13:42:19;2.73;;;1.90;;
3849;SDS011;1940;51.052;13.678;2022-10-16T13:44:53;2.77;;;2.30;;
3849;SDS011;1940;51.052;13.678;2022-10-16T13:47:26;2.13;;;1.90;;
3849;SDS011;1940;51.052;13.678;2022-10-16T13:50:01;3.83;;;1.93;;
3849;SDS011;1940;51.052;13.678;2022-10-16T13:52:31;1.43;;;1.30;;
3849;SDS011;1940;51.052;13.678;2022-10-16T13:54:57;1.77;;;1.33;;
3849;SDS011;1940;51.052;13.678;2022-10-16T13:57:23;1.93;;;1.33;;
3849;SDS011;1940;51.052;13.678;2022-10-16T13:59:49;1.43;;;1.33;;
3849;SDS011;1940;51.052;13.678;2022-10-16T14:04:55;2.37;;;1.40;;
3849;SDS011;1940;51.052;13.678;2022-10-16T14:07:24;2.20;;;1.70;;
3849;SDS011;1940;51.052;13.678;2022-10-16T14:10:01;1.57;;;1.40;;
3849;SDS011;1940;51.052;13.678;2022-10-16T14:12:32;2.73;;;1.63;;
3849;SDS011;1940;51.052;13.678;2022-10-16T14:14:58;4.27;;;1.70;;
3849;SDS011;1940;51.052;13.678;2022-10-16T14:17:31;1.53;;;1.33;;
3849;SDS011;1940;51.052;13.678;2022-10-16T14:20:00;1.60;;;1.40;;
3849;SDS011;1940;51.052;13.678;2022-10-16T14:22:32;2.13;;;1.80;;
3849;SDS011;1940;51.052;13.678;2022-10-16T14:25:00;2.10;;;1.60;;
3849;SDS011;1940;51.052;13.678;2022-10-16T14:27:31;3.50;;;1.50;;
3849;SDS011;1940;51.052;13.678;2022-10-16T14:33:06;1.70;;;1.40;;
3849;SDS011;1940;51.052;13.678;2022-10-16T14:35:45;4.40;;;1.77;;
3849;SDS011;1940;51.052;13.678;2022-10-16T14:38:17;1.20;;;1.10;;
3849;SDS011;1940;51.052;13.678;2022-10-16T14:40:46;2.90;;;1.60;;
3849;SDS011;1940;51.052;13.678;2022-10-16T14:43:21;1.73;;;1.40;;
3849;SDS011;1940;51.052;13.678;2022-10-16T14:45:52;2.50;;;1.20;;
3849;SDS011;1940;51.052;13.678;2022-10-16T14:48:20;2.40;;;1.20;;
3849;SDS011;1940;51.052;13.678;2022-10-16T14:50:46;2.77;;;1.80;;
3849;SDS011;1940;51.052;13.678;2022-10-16T14:53:12;1.93;;;1.27;;
3849;SDS011;1940;51.052;13.678;2022-10-16T14:55:39;2.33;;;1.87;;
3849;SDS011;1940;51.052;13.678;2022-10-16T14:58:05;2.20;;;1.50;;
3849;SDS011;1940;51.052;13.678;2022-10-16T15:00:41;8.10;;;1.87;;
3849;SDS011;1940;51.052;13.678;2022-10-16T15:03:07;4.43;;;2.17;;
3849;SDS011;1940;51.052;13.678;2022-10-16T15:05:33;2.50;;;1.80;;
3849;SDS011;1940;51.052;13.678;2022-10-16T15:07:58;2.03;;;1.70;;
3849;SDS011;1940;51.052;13.678;2022-10-16T15:10:24;1.63;;;1.30;;
3849;SDS011;1940;51.052;13.678;2022-10-16T15:12:52;4.90;;;2.93;;
3849;SDS011;1940;51.052;13.678;2022-10-16T15:15:23;3.70;;;2.10;;
3849;SDS011;1940;51.052;13.678;2022-10-16T15:17:55;1.60;;;1.50;;
3849;SDS011;1940;51.052;13.678;2022-10-16T15:20:25;2.93;;;1.50;;
3849;SDS011;1940;51.052;13.678;2022-10-16T15:22:52;2.30;;;1.30;;
3849;SDS011;1940;51.052;13.678;2022-10-16T15:25:29;4.43;;;1.60;;
3849;SDS011;1940;51.052;13.678;2022-10-16T15:28:07;1.40;;;1.30;;
3849;SDS011;1940;51.052;13.678;2022-10-16T15:30:34;2.00;;;1.77;;
3849;SDS011;1940;51.052;13.678;2022-10-16T15:33:02;3.00;;;1.97;;
3849;SDS011;1940;51.052;13.678;2022-10-16T15:35:29;2.97;;;2.10;;
3849;SDS011;1940;51.052;13.678;2022-10-16T15:37:55;7.87;;;4.17;;
3849;SDS011;1940;51.052;13.678;2022-10-16T15:40:21;2.57;;;1.97;;
3849;SDS011;1940;51.052;13.678;2022-10-16T15:42:47;4.53;;;2.63;;
3849;SDS011;1940;51.052;13.678;2022-10-16T15:45:14;3.30;;;2.50;;
3849;SDS011;1940;51.052;13.678;2022-10-16T15:47:41;12.60;;;6.63;;
3849;SDS011;1940;51.052;13.678;2022-10-16T15:50:08;3.80;;;2.80;;
3849;SDS011;1940;51.052;13.678;2022-10-16T15:52:36;2.60;;;2.30;;
3849;SDS011;1940;51.052;13.678;2022-10-16T15:55:02;1.80;;;1.40;;
3849;SDS011;1940;51.052;13.678;2022-10-16T15:57:28;5.83;;;3.20;;
3849;SDS011;1940;51.052;13.678;2022-10-16T15:59:54;2.97;;;2.07;;
3849;SDS011;1940;51.052;13.678;2022-10-16T16:02:20;3.60;;;2.40;;
3849;SDS011;1940;51.052;13.678;2022-10-16T16:04:45;6.23;;;4.60;;
3849;SDS011;1940;51.052;13.678;2022-10-16T16:07:11;9.40;;;5.43;;
3849;SDS011;1940;51.052;13.678;2022-10-16T16:09:37;28.73;;;12.73;;
3849;SDS011;1940;51.052;13.678;2022-10-16T16:12:03;12.30;;;3.37;;
3849;SDS011;1940;51.052;13.678;2022-10-16T16:14:28;4.83;;;2.10;;
3849;SDS011;1940;51.052;13.678;2022-10-16T16:16:54;6.70;;;3.40;;
3849;SDS011;1940;51.052;13.678;2022-10-16T16:19:20;3.27;;;2.47;;
3849;SDS011;1940;51.052;13.678;2022-10-16T16:21:47;8.73;;;4.17;;
3849;SDS011;1940;51.052;13.678;2022-10-16T16:24:13;12.67;;;4.07;;
3849;SDS011;1940;51.052;13.678;2022-10-16T16:26:38;7.30;;;3.93;;
3849;SDS011;1940;51.052;13.678;2022-10-16T16:29:08;11.17;;;4.17;;
3849;SDS011;1940;51.052;13.678;2022-10-16T16:31:36;6.80;;;3.90;;
3849;SDS011;1940;51.052;13.678;2022-10-16T16:34:02;5.30;;;3.67;;
3849;SDS011;1940;51.052;13.678;2022-10-16T16:36:28;6.27;;;4.03;;
3849;SDS011;1940;51.052;13.678;2022-10-16T16:38:54;6.53;;;3.40;;
3849;SDS011;1940;51.052;13.678;2022-10-16T16:41:22;7.67;;;4.03;;
3849;SDS011;1940;51.052;13.678;2022-10-16T16:43:50;5.27;;;3.90;;
3849;SDS011;1940;51.052;13.678;2022-10-16T16:46:17;8.50;;;5.10;;
3849;SDS011;1940;51.052;13.678;2022-10-16T16:48:43;5.40;;;3.60;;
3849;SDS011;1940;51.052;13.678;2022-10-16T16:51:10;6.07;;;3.83;;
3849;SDS011;1940;51.052;13.678;2022-10-16T16:53:41;8.43;;;4.70;;
3849;SDS011;1940;51.052;13.678;2022-10-16T16:56:08;5.37;;;4.00;;
3849;SDS011;1940;51.052;13.678;2022-10-16T16:58:34;9.50;;;4.30;;